sensor_id;sensor_type;location;lat;lon;timestamp;temperature;humidity
4050;DHT22;2039;50.894;6.888;2022-11-20T00:02:20;4.40;99.90
4050;DHT22;2039;50.894;6.888;2022-11-20T00:04:48;4.40;99.90
4050;DHT22;2039;50.894;6.888;2022-11-20T00:07:14;4.50;99.90
4050;DHT22;2039;50.894;6.888;2022-11-20T00:09:40;4.40;99.90
4050;DHT22;2039;50.894;6.888;2022-11-20T00:12:05;4.50;99.90
4050;DHT22;2039;50.894;6.888;2022-11-20T00:14:31;4.40;99.90
4050;DHT22;2039;50.894;6.888;2022-11-20T00:16:57;4.30;99.90
4050;DHT22;2039;50.894;6.888;2022-11-20T00:19:22;4.30;99.90
4050;DHT22;2039;50.894;6.888;2022-11-20T00:21:48;4.30;99.90
4050;DHT22;2039;50.894;6.888;2022-11-20T00:24:16;4.20;99.90
4050;DHT22;2039;50.894;6.888;2022-11-20T00:26:42;4.30;99.90
4050;DHT22;2039;50.894;6.888;2022-11-20T00:29:09;4.30;99.90
4050;DHT22;2039;50.894;6.888;2022-11-20T00:31:35;4.30;99.90
4050;DHT22;2039;50.894;6.888;2022-11-20T00:34:01;4.30;99.90
4050;DHT22;2039;50.894;6.888;2022-11-20T00:36:28;4.20;99.90
4050;DHT22;2039;50.894;6.888;2022-11-20T00:38:55;4.20;99.90
4050;DHT22;2039;50.894;6.888;2022-11-20T00:41:21;4.10;99.90
4050;DHT22;2039;50.894;6.888;2022-11-20T00:43:47;4.10;99.90
4050;DHT22;2039;50.894;6.888;2022-11-20T00:46:16;4.20;99.90
4050;DHT22;2039;50.894;6.888;2022-11-20T00:48:42;4.20;99.90
4050;DHT22;2039;50.894;6.888;2022-11-20T00:51:08;4.10;99.90
4050;DHT22;2039;50.894;6.888;2022-11-20T00:53:35;4.00;99.90
4050;DHT22;2039;50.894;6.888;2022-11-20T00:56:06;4.10;99.90
4050;DHT22;2039;50.894;6.888;2022-11-20T00:58:37;4.20;99.90
4050;DHT22;2039;50.894;6.888;2022-11-20T01:01:09;4.30;99.90
4050;DHT22;2039;50.894;6.888;2022-11-20T01:03:39;4.40;99.90
4050;DHT22;2039;50.894;6.888;2022-11-20T01:06:11;4.50;99.90
4050;DHT22;2039;50.894;6.888;2022-11-20T01:08:37;4.50;99.90
4050;DHT22;2039;50.894;6.888;2022-11-20T01:11:07;4.40;99.90
4050;DHT22;2039;50.894;6.888;2022-11-20T01:13:34;4.30;99.90
4050;DHT22;2039;50.894;6.888;2022-11-20T01:16:12;4.30;99.90
4050;DHT22;2039;50.894;6.888;2022-11-20T01:18:41;4.20;99.90
4050;DHT22;2039;50.894;6.888;2022-11-20T01:21:10;4.20;99.90
4050;DHT22;2039;50.894;6.888;2022-11-20T01:23:38;4.30;99.90
4050;DHT22;2039;50.894;6.888;2022-11-20T01:26:24;4.30;99.90
4050;DHT22;2039;50.894;6.888;2022-11-20T01:28:50;4.20;99.90
4050;DHT22;2039;50.894;6.888;2022-11-20T01:31:22;4.20;99.90
4050;DHT22;2039;50.894;6.888;2022-11-20T01:33:51;4.30;99.90
4050;DHT22;2039;50.894;6.888;2022-11-20T01:36:19;4.20;99.90
4050;DHT22;2039;50.894;6.888;2022-11-20T01:38:45;4.30;99.90
4050;DHT22;2039;50.894;6.888;2022-11-20T01:41:12;4.30;99.90
4050;DHT22;2039;50.894;6.888;2022-11-20T01:43:57;4.30;99.90
4050;DHT22;2039;50.894;6.888;2022-11-20T01:46:23;4.20;99.90
4050;DHT22;2039;50.894;6.888;2022-11-20T01:49:08;4.30;99.90
4050;DHT22;2039;50.894;6.888;2022-11-20T01:51:45;4.20;99.90
4050;DHT22;2039;50.894;6.888;2022-11-20T01:54:16;4.30;99.90
4050;DHT22;2039;50.894;6.888;2022-11-20T01:56:44;4.20;99.90
4050;DHT22;2039;50.894;6.888;2022-11-20T01:59:13;4.20;99.90
4050;DHT22;2039;50.894;6.888;2022-11-20T02:01:40;4.10;99.90
4050;DHT22;2039;50.894;6.888;2022-11-20T02:04:07;4.00;99.90
4050;DHT22;2039;50.894;6.888;2022-11-20T02:06:38;4.00;99.90
4050;DHT22;2039;50.894;6.888;2022-11-20T02:09:05;3.90;99.90
4050;DHT22;2039;50.894;6.888;2022-11-20T02:11:31;3.80;99.90
4050;DHT22;2039;50.894;6.888;2022-11-20T02:13:57;3.80;99.90
4050;DHT22;2039;50.894;6.888;2022-11-20T02:16:25;3.90;99.90
4050;DHT22;2039;50.894;6.888;2022-11-20T02:18:54;4.00;99.90
4050;DHT22;2039;50.894;6.888;2022-11-20T02:21:37;4.00;99.90
4050;DHT22;2039;50.894;6.888;2022-11-20T02:26:54;4.10;99.90
4050;DHT22;2039;50.894;6.888;2022-11-20T02:32:05;4.10;99.90
4050;DHT22;2039;50.894;6.888;2022-11-20T02:34:31;4.00;99.90
4050;DHT22;2039;50.894;6.888;2022-11-20T02:36:57;4.10;99.90
4050;DHT22;2039;50.894;6.888;2022-11-20T02:39:25;4.10;99.90
4050;DHT22;2039;50.894;6.888;2022-11-20T02:41:56;4.10;99.90
4050;DHT22;2039;50.894;6.888;2022-11-20T02:44:22;4.00;99.90
4050;DHT22;2039;50.894;6.888;2022-11-20T02:46:48;4.00;99.90
4050;DHT22;2039;50.894;6.888;2022-11-20T02:49:13;4.00;99.90
4050;DHT22;2039;50.894;6.888;2022-11-20T02:51:39;4.00;99.90
4050;DHT22;2039;50.894;6.888;2022-11-20T02:54:05;4.00;99.90
4050;DHT22;2039;50.894;6.888;2022-11-20T02:56:31;4.10;99.90
4050;DHT22;2039;50.894;6.888;2022-11-20T02:58:56;4.10;99.90
4050;DHT22;2039;50.894;6.888;2022-11-20T03:01:22;4.20;99.90
4050;DHT22;2039;50.894;6.888;2022-11-20T03:03:48;4.10;99.90
4050;DHT22;2039;50.894;6.888;2022-11-20T03:06:15;4.10;99.90
4050;DHT22;2039;50.894;6.888;2022-11-20T03:08:41;4.20;99.90
4050;DHT22;2039;50.894;6.888;2022-11-20T03:11:07;4.20;99.90
4050;DHT22;2039;50.894;6.888;2022-11-20T03:13:33;4.20;99.90
4050;DHT22;2039;50.894;6.888;2022-11-20T03:16:18;4.20;99.90
4050;DHT22;2039;50.894;6.888;2022-11-20T03:18:45;4.10;99.90
4050;DHT22;2039;50.894;6.888;2022-11-20T03:21:12;4.10;99.90
4050;DHT22;2039;50.894;6.888;2022-11-20T03:23:38;4.10;99.90
4050;DHT22;2039;50.894;6.888;2022-11-20T03:26:09;4.10;99.90
4050;DHT22;2039;50.894;6.888;2022-11-20T03:28:35;4.20;99.90
4050;DHT22;2039;50.894;6.888;2022-11-20T03:31:12;4.20;99.90
4050;DHT22;2039;50.894;6.888;2022-11-20T03:33:39;4.20;99.90
4050;DHT22;2039;50.894;6.888;2022-11-20T03:36:07;4.20;99.90
4050;DHT22;2039;50.894;6.888;2022-11-20T03:38:33;4.20;99.90
4050;DHT22;2039;50.894;6.888;2022-11-20T03:41:08;4.20;99.90
4050;DHT22;2039;50.894;6.888;2022-11-20T03:43:34;4.20;99.90
4050;DHT22;2039;50.894;6.888;2022-11-20T03:46:00;4.20;99.90
4050;DHT22;2039;50.894;6.888;2022-11-20T03:48:26;4.20;99.90
4050;DHT22;2039;50.894;6.888;2022-11-20T03:50:53;4.20;99.90
4050;DHT22;2039;50.894;6.888;2022-11-20T03:53:19;4.30;99.90
4050;DHT22;2039;50.894;6.888;2022-11-20T03:55:50;4.20;99.90
4050;DHT22;2039;50.894;6.888;2022-11-20T03:58:15;4.20;99.90
4050;DHT22;2039;50.894;6.888;2022-11-20T04:00:41;4.20;99.90
4050;DHT22;2039;50.894;6.888;2022-11-20T04:03:07;4.20;99.90
4050;DHT22;2039;50.894;6.888;2022-11-20T04:05:34;4.20;99.90
4050;DHT22;2039;50.894;6.888;2022-11-20T04:08:00;4.30;99.90
4050;DHT22;2039;50.894;6.888;2022-11-20T04:10:29;4.30;99.90
4050;DHT22;2039;50.894;6.888;2022-11-20T04:12:58;4.20;99.90
4050;DHT22;2039;50.894;6.888;2022-11-20T04:15:23;4.20;99.90
4050;DHT22;2039;50.894;6.888;2022-11-20T04:17:49;4.20;99.90
4050;DHT22;2039;50.894;6.888;2022-11-20T04:20:15;4.20;99.90
4050;DHT22;2039;50.894;6.888;2022-11-20T04:22:40;4.20;99.90
4050;DHT22;2039;50.894;6.888;2022-11-20T04:25:06;4.20;99.90
4050;DHT22;2039;50.894;6.888;2022-11-20T04:27:32;4.10;99.90
4050;DHT22;2039;50.894;6.888;2022-11-20T04:29:58;4.10;99.90
4050;DHT22;2039;50.894;6.888;2022-11-20T04:32:23;4.10;99.90
4050;DHT22;2039;50.894;6.888;2022-11-20T04:34:49;4.10;99.90
4050;DHT22;2039;50.894;6.888;2022-11-20T04:37:18;4.10;99.90
4050;DHT22;2039;50.894;6.888;2022-11-20T04:39:43;4.10;99.90
4050;DHT22;2039;50.894;6.888;2022-11-20T04:42:09;4.10;99.90
4050;DHT22;2039;50.894;6.888;2022-11-20T04:44:57;4.10;99.90
4050;DHT22;2039;50.894;6.888;2022-11-20T04:47:23;4.10;99.90
4050;DHT22;2039;50.894;6.888;2022-11-20T04:49:49;4.00;99.90
4050;DHT22;2039;50.894;6.888;2022-11-20T04:52:14;4.10;99.90
4050;DHT22;2039;50.894;6.888;2022-11-20T04:54:40;4.10;99.90
4050;DHT22;2039;50.894;6.888;2022-11-20T04:57:06;4.10;99.90
4050;DHT22;2039;50.894;6.888;2022-11-20T04:59:31;4.10;99.90
4050;DHT22;2039;50.894;6.888;2022-11-20T05:01:57;4.20;99.90
4050;DHT22;2039;50.894;6.888;2022-11-20T05:04:23;4.20;99.90
4050;DHT22;2039;50.894;6.888;2022-11-20T05:06:49;4.30;99.90
4050;DHT22;2039;50.894;6.888;2022-11-20T05:09:15;4.30;99.90
4050;DHT22;2039;50.894;6.888;2022-11-20T05:11:41;4.40;99.90
4050;DHT22;2039;50.894;6.888;2022-11-20T05:14:06;4.40;99.90
4050;DHT22;2039;50.894;6.888;2022-11-20T05:16:34;4.50;99.90
4050;DHT22;2039;50.894;6.888;2022-11-20T05:19:01;4.40;99.90
4050;DHT22;2039;50.894;6.888;2022-11-20T05:21:29;4.50;99.90
4050;DHT22;2039;50.894;6.888;2022-11-20T05:23:55;4.50;99.90
4050;DHT22;2039;50.894;6.888;2022-11-20T05:26:21;4.60;99.90
4050;DHT22;2039;50.894;6.888;2022-11-20T05:28:48;4.60;99.90
4050;DHT22;2039;50.894;6.888;2022-11-20T05:31:18;4.60;99.90
4050;DHT22;2039;50.894;6.888;2022-11-20T05:33:45;4.60;99.90
4050;DHT22;2039;50.894;6.888;2022-11-20T05:36:12;4.60;99.90
4050;DHT22;2039;50.894;6.888;2022-11-20T05:38:38;4.50;99.90
4050;DHT22;2039;50.894;6.888;2022-11-20T05:41:07;4.50;99.90
4050;DHT22;2039;50.894;6.888;2022-11-20T05:43:37;4.50;99.90
4050;DHT22;2039;50.894;6.888;2022-11-20T05:46:05;4.60;99.90
4050;DHT22;2039;50.894;6.888;2022-11-20T05:48:32;4.60;99.90
4050;DHT22;2039;50.894;6.888;2022-11-20T05:51:00;4.60;99.90
4050;DHT22;2039;50.894;6.888;2022-11-20T05:53:26;4.60;99.90
4050;DHT22;2039;50.894;6.888;2022-11-20T05:56:07;4.60;99.90
4050;DHT22;2039;50.894;6.888;2022-11-20T05:58:33;4.50;99.90
4050;DHT22;2039;50.894;6.888;2022-11-20T06:01:13;4.50;99.90
4050;DHT22;2039;50.894;6.888;2022-11-20T06:03:40;4.50;99.90
4050;DHT22;2039;50.894;6.888;2022-11-20T06:06:08;4.50;99.90
4050;DHT22;2039;50.894;6.888;2022-11-20T06:08:34;4.50;99.90
4050;DHT22;2039;50.894;6.888;2022-11-20T06:11:08;4.50;99.90
4050;DHT22;2039;50.894;6.888;2022-11-20T06:13:34;4.50;99.90
4050;DHT22;2039;50.894;6.888;2022-11-20T06:16:00;4.50;99.90
4050;DHT22;2039;50.894;6.888;2022-11-20T06:18:27;4.50;99.90
4050;DHT22;2039;50.894;6.888;2022-11-20T06:21:05;4.50;99.90
4050;DHT22;2039;50.894;6.888;2022-11-20T06:23:32;4.40;99.90
4050;DHT22;2039;50.894;6.888;2022-11-20T06:26:04;4.50;99.90
4050;DHT22;2039;50.894;6.888;2022-11-20T06:28:30;4.50;99.90
4050;DHT22;2039;50.894;6.888;2022-11-20T06:30:57;4.40;99.90
4050;DHT22;2039;50.894;6.888;2022-11-20T06:33:22;4.50;99.90
4050;DHT22;2039;50.894;6.888;2022-11-20T06:35:48;4.50;99.90
4050;DHT22;2039;50.894;6.888;2022-11-20T06:38:14;4.50;99.90
4050;DHT22;2039;50.894;6.888;2022-11-20T06:40:40;4.50;99.90
4050;DHT22;2039;50.894;6.888;2022-11-20T06:43:06;4.60;99.90
4050;DHT22;2039;50.894;6.888;2022-11-20T06:45:32;4.50;99.90
4050;DHT22;2039;50.894;6.888;2022-11-20T06:47:58;4.50;99.90
4050;DHT22;2039;50.894;6.888;2022-11-20T06:50:23;4.40;99.90
4050;DHT22;2039;50.894;6.888;2022-11-20T06:52:49;4.40;99.90
4050;DHT22;2039;50.894;6.888;2022-11-20T06:55:15;4.40;99.90
4050;DHT22;2039;50.894;6.888;2022-11-20T06:57:41;4.30;99.90
4050;DHT22;2039;50.894;6.888;2022-11-20T07:00:07;4.30;99.90
4050;DHT22;2039;50.894;6.888;2022-11-20T07:02:32;4.30;99.90
4050;DHT22;2039;50.894;6.888;2022-11-20T07:04:58;4.40;99.90
4050;DHT22;2039;50.894;6.888;2022-11-20T07:07:24;4.40;99.90
4050;DHT22;2039;50.894;6.888;2022-11-20T07:09:49;4.40;99.90
4050;DHT22;2039;50.894;6.888;2022-11-20T07:12:15;4.40;99.90
4050;DHT22;2039;50.894;6.888;2022-11-20T07:14:41;4.40;99.90
4050;DHT22;2039;50.894;6.888;2022-11-20T07:17:07;4.40;99.90
4050;DHT22;2039;50.894;6.888;2022-11-20T07:19:32;4.50;99.90
4050;DHT22;2039;50.894;6.888;2022-11-20T07:21:58;4.60;99.90
4050;DHT22;2039;50.894;6.888;2022-11-20T07:24:24;4.60;99.90
4050;DHT22;2039;50.894;6.888;2022-11-20T07:26:49;4.60;99.90
4050;DHT22;2039;50.894;6.888;2022-11-20T07:29:16;4.60;99.90
4050;DHT22;2039;50.894;6.888;2022-11-20T07:31:42;4.70;99.90
4050;DHT22;2039;50.894;6.888;2022-11-20T07:34:08;4.80;99.90
4050;DHT22;2039;50.894;6.888;2022-11-20T07:36:34;4.90;99.90
4050;DHT22;2039;50.894;6.888;2022-11-20T07:38:59;4.90;99.90
4050;DHT22;2039;50.894;6.888;2022-11-20T07:41:25;4.80;99.90
4050;DHT22;2039;50.894;6.888;2022-11-20T07:43:51;4.90;99.90
4050;DHT22;2039;50.894;6.888;2022-11-20T07:46:16;4.90;99.90
4050;DHT22;2039;50.894;6.888;2022-11-20T07:48:42;4.90;99.90
4050;DHT22;2039;50.894;6.888;2022-11-20T07:51:08;4.90;99.90
4050;DHT22;2039;50.894;6.888;2022-11-20T07:53:34;5.00;99.90
4050;DHT22;2039;50.894;6.888;2022-11-20T07:56:00;4.90;99.90
4050;DHT22;2039;50.894;6.888;2022-11-20T07:58:29;4.90;99.90
4050;DHT22;2039;50.894;6.888;2022-11-20T08:00:55;4.90;99.90
4050;DHT22;2039;50.894;6.888;2022-11-20T08:03:21;4.90;99.90
4050;DHT22;2039;50.894;6.888;2022-11-20T08:05:46;5.00;99.90
4050;DHT22;2039;50.894;6.888;2022-11-20T08:08:12;5.00;99.90
4050;DHT22;2039;50.894;6.888;2022-11-20T08:10:38;5.10;99.90
4050;DHT22;2039;50.894;6.888;2022-11-20T08:13:03;5.10;99.90
4050;DHT22;2039;50.894;6.888;2022-11-20T08:15:51;5.10;99.90
4050;DHT22;2039;50.894;6.888;2022-11-20T08:18:17;5.00;99.90
4050;DHT22;2039;50.894;6.888;2022-11-20T08:20:43;5.00;99.90
4050;DHT22;2039;50.894;6.888;2022-11-20T08:23:09;5.00;99.90
4050;DHT22;2039;50.894;6.888;2022-11-20T08:25:37;4.90;99.90
4050;DHT22;2039;50.894;6.888;2022-11-20T08:28:05;5.00;99.90
4050;DHT22;2039;50.894;6.888;2022-11-20T08:30:32;5.00;99.90
4050;DHT22;2039;50.894;6.888;2022-11-20T08:33:03;5.00;99.90
4050;DHT22;2039;50.894;6.888;2022-11-20T08:35:33;5.00;99.90
4050;DHT22;2039;50.894;6.888;2022-11-20T08:38:00;5.00;99.90
4050;DHT22;2039;50.894;6.888;2022-11-20T08:40:26;5.10;99.90
4050;DHT22;2039;50.894;6.888;2022-11-20T08:42:52;5.10;99.90
4050;DHT22;2039;50.894;6.888;2022-11-20T08:45:18;5.20;99.90
4050;DHT22;2039;50.894;6.888;2022-11-20T08:47:45;5.20;99.90
4050;DHT22;2039;50.894;6.888;2022-11-20T08:50:13;5.10;99.90
4050;DHT22;2039;50.894;6.888;2022-11-20T08:52:39;5.20;99.90
4050;DHT22;2039;50.894;6.888;2022-11-20T08:55:06;5.20;99.90
4050;DHT22;2039;50.894;6.888;2022-11-20T08:57:32;5.30;99.90
4050;DHT22;2039;50.894;6.888;2022-11-20T08:59:58;5.30;99.90
4050;DHT22;2039;50.894;6.888;2022-11-20T09:02:24;5.40;99.90
4050;DHT22;2039;50.894;6.888;2022-11-20T09:04:50;5.50;99.90
4050;DHT22;2039;50.894;6.888;2022-11-20T09:07:16;5.40;99.90
4050;DHT22;2039;50.894;6.888;2022-11-20T09:09:45;5.40;99.90
4050;DHT22;2039;50.894;6.888;2022-11-20T09:12:10;5.40;99.90
4050;DHT22;2039;50.894;6.888;2022-11-20T09:14:36;5.40;99.90
4050;DHT22;2039;50.894;6.888;2022-11-20T09:17:02;5.40;99.90
4050;DHT22;2039;50.894;6.888;2022-11-20T09:19:28;5.40;99.90
4050;DHT22;2039;50.894;6.888;2022-11-20T09:21:53;5.50;99.90
4050;DHT22;2039;50.894;6.888;2022-11-20T09:24:19;5.60;99.90
4050;DHT22;2039;50.894;6.888;2022-11-20T09:26:46;5.60;99.90
4050;DHT22;2039;50.894;6.888;2022-11-20T09:29:12;5.60;99.90
4050;DHT22;2039;50.894;6.888;2022-11-20T09:31:37;5.60;99.90
4050;DHT22;2039;50.894;6.888;2022-11-20T09:34:03;5.60;99.90
4050;DHT22;2039;50.894;6.888;2022-11-20T09:36:32;5.60;99.90
4050;DHT22;2039;50.894;6.888;2022-11-20T09:38:57;5.60;99.90
4050;DHT22;2039;50.894;6.888;2022-11-20T09:50:04;5.80;99.90
4050;DHT22;2039;50.894;6.888;2022-11-20T09:54:58;5.70;99.90
4050;DHT22;2039;50.894;6.888;2022-11-20T09:57:34;5.60;99.90
4050;DHT22;2039;50.894;6.888;2022-11-20T10:00:04;5.60;99.90
4050;DHT22;2039;50.894;6.888;2022-11-20T10:03:05;5.80;99.90
4050;DHT22;2039;50.894;6.888;2022-11-20T10:14:20;5.50;99.90
4050;DHT22;2039;50.894;6.888;2022-11-20T10:25:40;5.70;99.90
4050;DHT22;2039;50.894;6.888;2022-11-20T10:31:06;5.80;99.90
4050;DHT22;2039;50.894;6.888;2022-11-20T10:33:36;5.80;99.90
4050;DHT22;2039;50.894;6.888;2022-11-20T10:36:36;5.80;99.90
4050;DHT22;2039;50.894;6.888;2022-11-20T10:39:07;5.90;99.90
4050;DHT22;2039;50.894;6.888;2022-11-20T10:41:41;5.90;99.90
4050;DHT22;2039;50.894;6.888;2022-11-20T10:44:21;5.90;99.90
4050;DHT22;2039;50.894;6.888;2022-11-20T10:47:17;5.90;99.90
4050;DHT22;2039;50.894;6.888;2022-11-20T10:49:47;6.00;99.90
4050;DHT22;2039;50.894;6.888;2022-11-20T11:00:12;5.90;99.90
4050;DHT22;2039;50.894;6.888;2022-11-20T11:02:50;5.90;99.90
4050;DHT22;2039;50.894;6.888;2022-11-20T11:07:47;5.80;99.90
4050;DHT22;2039;50.894;6.888;2022-11-20T11:13:00;5.80;99.90
4050;DHT22;2039;50.894;6.888;2022-11-20T11:15:37;5.80;99.90
4050;DHT22;2039;50.894;6.888;2022-11-20T11:18:04;5.90;99.90
4050;DHT22;2039;50.894;6.888;2022-11-20T11:20:30;5.90;99.90
4050;DHT22;2039;50.894;6.888;2022-11-20T11:22:58;6.00;99.90
4050;DHT22;2039;50.894;6.888;2022-11-20T11:25:27;6.20;99.90
4050;DHT22;2039;50.894;6.888;2022-11-20T11:28:05;6.20;99.90
4050;DHT22;2039;50.894;6.888;2022-11-20T11:30:45;6.10;99.90
4050;DHT22;2039;50.894;6.888;2022-11-20T11:33:28;6.10;99.90
4050;DHT22;2039;50.894;6.888;2022-11-20T11:35:56;6.00;99.90
4050;DHT22;2039;50.894;6.888;2022-11-20T11:38:38;5.90;99.90
4050;DHT22;2039;50.894;6.888;2022-11-20T11:41:05;6.00;99.90
4050;DHT22;2039;50.894;6.888;2022-11-20T11:43:34;6.00;99.90
4050;DHT22;2039;50.894;6.888;2022-11-20T11:46:30;6.00;99.90
4050;DHT22;2039;50.894;6.888;2022-11-20T11:59:51;6.00;99.90
4050;DHT22;2039;50.894;6.888;2022-11-20T12:04:59;6.00;99.90
4050;DHT22;2039;50.894;6.888;2022-11-20T12:15:55;6.20;99.90
4050;DHT22;2039;50.894;6.888;2022-11-20T12:18:22;6.20;99.90
4050;DHT22;2039;50.894;6.888;2022-11-20T12:21:02;6.10;99.90
4050;DHT22;2039;50.894;6.888;2022-11-20T12:27:02;6.10;99.90
4050;DHT22;2039;50.894;6.888;2022-11-20T12:32:26;6.10;99.90
4050;DHT22;2039;50.894;6.888;2022-11-20T12:43:28;6.50;99.90
4050;DHT22;2039;50.894;6.888;2022-11-20T12:57:18;6.80;99.90
4050;DHT22;2039;50.894;6.888;2022-11-20T13:03:16;6.50;99.90
4050;DHT22;2039;50.894;6.888;2022-11-20T13:08:39;6.40;99.90
4050;DHT22;2039;50.894;6.888;2022-11-20T13:11:32;6.40;99.90
4050;DHT22;2039;50.894;6.888;2022-11-20T13:14:26;6.50;99.90
4050;DHT22;2039;50.894;6.888;2022-11-20T13:19:28;6.60;99.90
4050;DHT22;2039;50.894;6.888;2022-11-20T13:21:55;6.70;99.90
4050;DHT22;2039;50.894;6.888;2022-11-20T13:29:44;6.70;99.90
4050;DHT22;2039;50.894;6.888;2022-11-20T13:32:15;6.80;99.90
4050;DHT22;2039;50.894;6.888;2022-11-20T13:35:22;6.80;99.90
4050;DHT22;2039;50.894;6.888;2022-11-20T13:38:19;6.80;99.90
4050;DHT22;2039;50.894;6.888;2022-11-20T13:40:52;6.70;99.90
4050;DHT22;2039;50.894;6.888;2022-11-20T13:45:57;6.60;99.90
4050;DHT22;2039;50.894;6.888;2022-11-20T13:48:34;6.50;99.90
4050;DHT22;2039;50.894;6.888;2022-11-20T13:56:34;6.60;99.90
4050;DHT22;2039;50.894;6.888;2022-11-20T14:01:51;6.60;99.90
4050;DHT22;2039;50.894;6.888;2022-11-20T14:04:24;6.60;99.90
4050;DHT22;2039;50.894;6.888;2022-11-20T14:06:51;6.50;99.90
4050;DHT22;2039;50.894;6.888;2022-11-20T14:09:29;6.60;99.90
4050;DHT22;2039;50.894;6.888;2022-11-20T14:11:55;6.50;99.90
4050;DHT22;2039;50.894;6.888;2022-11-20T14:14:27;6.60;99.90
4050;DHT22;2039;50.894;6.888;2022-11-20T14:17:18;6.50;99.90
4050;DHT22;2039;50.894;6.888;2022-11-20T14:19:46;6.50;99.90
4050;DHT22;2039;50.894;6.888;2022-11-20T14:22:21;6.50;99.90
4050;DHT22;2039;50.894;6.888;2022-11-20T14:27:34;6.50;99.90
4050;DHT22;2039;50.894;6.888;2022-11-20T14:30:02;6.40;99.90
4050;DHT22;2039;50.894;6.888;2022-11-20T14:32:29;6.40;99.90
4050;DHT22;2039;50.894;6.888;2022-11-20T14:34:59;6.40;99.90
4050;DHT22;2039;50.894;6.888;2022-11-20T14:37:33;6.40;99.90
4050;DHT22;2039;50.894;6.888;2022-11-20T14:40:02;6.40;99.90
4050;DHT22;2039;50.894;6.888;2022-11-20T14:42:31;6.40;99.90
4050;DHT22;2039;50.894;6.888;2022-11-20T14:45:04;6.40;99.90
4050;DHT22;2039;50.894;6.888;2022-11-20T14:47:32;6.50;99.90
4050;DHT22;2039;50.894;6.888;2022-11-20T14:49:59;6.50;99.90
4050;DHT22;2039;50.894;6.888;2022-11-20T14:52:27;6.50;99.90
4050;DHT22;2039;50.894;6.888;2022-11-20T14:54:57;6.50;99.90
4050;DHT22;2039;50.894;6.888;2022-11-20T14:57:31;6.50;99.90
4050;DHT22;2039;50.894;6.888;2022-11-20T15:02:46;6.50;99.90
4050;DHT22;2039;50.894;6.888;2022-11-20T15:05:13;6.60;99.90
4050;DHT22;2039;50.894;6.888;2022-11-20T15:07:42;6.60;99.90
4050;DHT22;2039;50.894;6.888;2022-11-20T15:13:00;6.60;99.90
4050;DHT22;2039;50.894;6.888;2022-11-20T15:15:49;6.60;99.90
4050;DHT22;2039;50.894;6.888;2022-11-20T15:18:26;6.60;99.90
4050;DHT22;2039;50.894;6.888;2022-11-20T15:20:57;6.60;99.90
4050;DHT22;2039;50.894;6.888;2022-11-20T15:23:23;6.60;99.90
4050;DHT22;2039;50.894;6.888;2022-11-20T15:25:49;6.60;99.90
4050;DHT22;2039;50.894;6.888;2022-11-20T15:28:23;6.60;99.90
4050;DHT22;2039;50.894;6.888;2022-11-20T15:30:52;6.60;99.90
4050;DHT22;2039;50.894;6.888;2022-11-20T15:33:27;6.50;99.90
4050;DHT22;2039;50.894;6.888;2022-11-20T15:36:01;6.50;99.90
4050;DHT22;2039;50.894;6.888;2022-11-20T15:38:27;6.50;99.90
4050;DHT22;2039;50.894;6.888;2022-11-20T15:40:52;6.50;99.90
4050;DHT22;2039;50.894;6.888;2022-11-20T15:43:18;6.60;99.90
4050;DHT22;2039;50.894;6.888;2022-11-20T15:48:23;6.60;99.90
4050;DHT22;2039;50.894;6.888;2022-11-20T15:50:58;6.60;99.90
4050;DHT22;2039;50.894;6.888;2022-11-20T15:53:27;6.50;99.90
4050;DHT22;2039;50.894;6.888;2022-11-20T15:55:53;6.60;99.90
4050;DHT22;2039;50.894;6.888;2022-11-20T15:58:23;6.60;99.90
4050;DHT22;2039;50.894;6.888;2022-11-20T16:00:53;6.60;99.90
4050;DHT22;2039;50.894;6.888;2022-11-20T16:03:19;6.60;99.90
4050;DHT22;2039;50.894;6.888;2022-11-20T16:05:48;6.60;99.90
4050;DHT22;2039;50.894;6.888;2022-11-20T16:08:13;6.60;99.90
4050;DHT22;2039;50.894;6.888;2022-11-20T16:10:40;6.70;99.90
4050;DHT22;2039;50.894;6.888;2022-11-20T16:13:16;6.60;99.90
4050;DHT22;2039;50.894;6.888;2022-11-20T16:16:04;6.70;99.90
4050;DHT22;2039;50.894;6.888;2022-11-20T16:18:31;6.60;99.90
4050;DHT22;2039;50.894;6.888;2022-11-20T16:20:57;6.60;99.90
4050;DHT22;2039;50.894;6.888;2022-11-20T16:23:23;6.70;99.90
4050;DHT22;2039;50.894;6.888;2022-11-20T16:25:49;6.70;99.90
4050;DHT22;2039;50.894;6.888;2022-11-20T16:28:15;6.70;99.90
4050;DHT22;2039;50.894;6.888;2022-11-20T16:30:41;6.70;99.90
4050;DHT22;2039;50.894;6.888;2022-11-20T16:33:28;6.70;99.90
4050;DHT22;2039;50.894;6.888;2022-11-20T16:35:54;6.70;99.90
4050;DHT22;2039;50.894;6.888;2022-11-20T16:38:19;6.70;99.90
4050;DHT22;2039;50.894;6.888;2022-11-20T16:43:20;6.60;99.90
4050;DHT22;2039;50.894;6.888;2022-11-20T16:45:46;6.60;99.90
4050;DHT22;2039;50.894;6.888;2022-11-20T16:48:13;6.60;99.90
4050;DHT22;2039;50.894;6.888;2022-11-20T16:50:51;6.70;99.90
4050;DHT22;2039;50.894;6.888;2022-11-20T16:53:18;6.60;99.90
4050;DHT22;2039;50.894;6.888;2022-11-20T16:55:44;6.60;99.90
4050;DHT22;2039;50.894;6.888;2022-11-20T16:58:10;6.60;99.90
4050;DHT22;2039;50.894;6.888;2022-11-20T17:00:38;6.60;99.90
4050;DHT22;2039;50.894;6.888;2022-11-20T17:03:05;6.60;99.90
4050;DHT22;2039;50.894;6.888;2022-11-20T17:05:31;6.60;99.90
4050;DHT22;2039;50.894;6.888;2022-11-20T17:07:57;6.60;99.90
4050;DHT22;2039;50.894;6.888;2022-11-20T17:10:22;6.60;99.90
4050;DHT22;2039;50.894;6.888;2022-11-20T17:12:51;6.60;99.90
4050;DHT22;2039;50.894;6.888;2022-11-20T17:15:17;6.60;99.90
4050;DHT22;2039;50.894;6.888;2022-11-20T17:18:02;6.60;99.90
4050;DHT22;2039;50.894;6.888;2022-11-20T17:20:38;6.50;99.90
4050;DHT22;2039;50.894;6.888;2022-11-20T17:23:07;6.50;99.90
4050;DHT22;2039;50.894;6.888;2022-11-20T17:25:33;6.50;99.90
4050;DHT22;2039;50.894;6.888;2022-11-20T17:28:01;6.50;99.90
4050;DHT22;2039;50.894;6.888;2022-11-20T17:30:29;6.50;99.90
4050;DHT22;2039;50.894;6.888;2022-11-20T17:32:55;6.50;99.90
4050;DHT22;2039;50.894;6.888;2022-11-20T17:35:33;6.50;99.90
4050;DHT22;2039;50.894;6.888;2022-11-20T17:38:05;6.50;99.90
4050;DHT22;2039;50.894;6.888;2022-11-20T17:40:31;6.50;99.90
4050;DHT22;2039;50.894;6.888;2022-11-20T17:42:57;6.60;99.90
4050;DHT22;2039;50.894;6.888;2022-11-20T17:45:22;6.60;99.90
4050;DHT22;2039;50.894;6.888;2022-11-20T17:47:48;6.50;99.90
4050;DHT22;2039;50.894;6.888;2022-11-20T17:50:14;6.60;99.90
4050;DHT22;2039;50.894;6.888;2022-11-20T17:52:40;6.60;99.90
4050;DHT22;2039;50.894;6.888;2022-11-20T17:55:06;6.60;99.90
4050;DHT22;2039;50.894;6.888;2022-11-20T17:57:31;6.60;99.90
4050;DHT22;2039;50.894;6.888;2022-11-20T18:00:16;6.60;99.90
4050;DHT22;2039;50.894;6.888;2022-11-20T18:02:42;6.50;99.90
4050;DHT22;2039;50.894;6.888;2022-11-20T18:05:08;6.50;99.90
4050;DHT22;2039;50.894;6.888;2022-11-20T18:07:34;6.50;99.90
4050;DHT22;2039;50.894;6.888;2022-11-20T18:09:59;6.60;99.90
4050;DHT22;2039;50.894;6.888;2022-11-20T18:12:25;6.50;99.90
4050;DHT22;2039;50.894;6.888;2022-11-20T18:14:51;6.60;99.90
4050;DHT22;2039;50.894;6.888;2022-11-20T18:17:17;6.70;99.90
4050;DHT22;2039;50.894;6.888;2022-11-20T18:19:44;6.70;99.90
4050;DHT22;2039;50.894;6.888;2022-11-20T18:22:15;6.70;99.90
4050;DHT22;2039;50.894;6.888;2022-11-20T18:24:41;6.70;99.90
4050;DHT22;2039;50.894;6.888;2022-11-20T18:27:15;6.80;99.90
4050;DHT22;2039;50.894;6.888;2022-11-20T18:29:42;6.80;99.90
4050;DHT22;2039;50.894;6.888;2022-11-20T18:32:11;6.80;99.90
4050;DHT22;2039;50.894;6.888;2022-11-20T18:34:36;6.80;99.90
4050;DHT22;2039;50.894;6.888;2022-11-20T18:37:02;6.80;99.90
4050;DHT22;2039;50.894;6.888;2022-11-20T18:39:28;6.80;99.90
4050;DHT22;2039;50.894;6.888;2022-11-20T18:41:53;6.80;99.90
4050;DHT22;2039;50.894;6.888;2022-11-20T18:44:37;6.80;99.90
4050;DHT22;2039;50.894;6.888;2022-11-20T18:47:25;6.90;99.90